createdAt,value
2023-02-05T00:01:34.931Z,20.58
2023-02-05T00:04:01.572Z,20.05
2023-02-05T00:06:28.127Z,21.33
2023-02-05T00:08:57.199Z,23.05
2023-02-05T00:11:24.747Z,21.58
2023-02-05T00:13:53.580Z,22.08
2023-02-05T00:16:22.170Z,23.10
2023-02-05T00:18:49.411Z,22.52
2023-02-05T00:21:17.152Z,24.20
2023-02-05T00:23:43.993Z,24.10
2023-02-05T00:26:10.949Z,25.35
2023-02-05T00:28:40.373Z,25.63
2023-02-05T00:31:14.410Z,25.83
2023-02-05T00:33:41.178Z,26.38
2023-02-05T00:36:12.688Z,25.23
2023-02-05T00:38:40.156Z,25.77
2023-02-05T00:41:06.788Z,25.40
2023-02-05T00:43:33.326Z,25.02
2023-02-05T00:45:59.898Z,25.55
2023-02-05T00:48:26.758Z,24.23
2023-02-05T00:50:54.880Z,25.45
2023-02-05T00:53:22.756Z,23.65
2023-02-05T00:55:50.281Z,24.73
2023-02-05T00:58:17.234Z,25.10
2023-02-05T01:00:44.331Z,23.02
2023-02-05T01:03:11.098Z,22.08
2023-02-05T01:05:41.332Z,23.52
2023-02-05T01:08:10.606Z,22.95
2023-02-05T01:10:37.644Z,23.05
2023-02-05T01:13:07.806Z,23.45
2023-02-05T01:15:34.813Z,22.98
2023-02-05T01:18:03.988Z,22.33
2023-02-05T01:20:30.705Z,24.08
2023-02-05T01:22:57.386Z,22.45
2023-02-05T01:25:24.188Z,21.75
2023-02-05T01:27:50.840Z,22.27
2023-02-05T01:30:20.401Z,21.98
2023-02-05T01:32:47.042Z,22.30
2023-02-05T01:35:15.959Z,21.23
2023-02-05T01:37:42.554Z,22.67
2023-02-05T01:40:13.753Z,22.10
2023-02-05T01:42:40.303Z,21.95
2023-02-05T01:45:54.810Z,22.83
2023-02-05T01:48:29.753Z,21.55
2023-02-05T01:51:04.738Z,21.13
2023-02-05T01:53:34.863Z,21.05
2023-02-05T01:56:14.939Z,21.27
2023-02-05T01:58:49.579Z,21.05
2023-02-05T02:01:16.284Z,20.27
2023-02-05T02:03:46.347Z,21.85
2023-02-05T02:06:12.889Z,21.23
2023-02-05T02:08:39.459Z,21.05
2023-02-05T02:11:10.134Z,20.55
2023-02-05T02:13:40.129Z,21.15
2023-02-05T02:16:08.161Z,20.73
2023-02-05T02:18:36.841Z,21.00
2023-02-05T02:21:28.021Z,21.75
2023-02-05T02:24:23.805Z,20.20
2023-02-05T02:27:14.871Z,20.55
2023-02-05T02:30:02.452Z,21.05
2023-02-05T02:32:45.843Z,19.98
2023-02-05T02:35:44.614Z,20.80
2023-02-05T02:38:15.472Z,19.55
2023-02-05T02:40:51.911Z,20.10
2023-02-05T02:43:30.787Z,19.50
2023-02-05T02:46:05.504Z,18.88
2023-02-05T02:48:35.139Z,19.30
2023-02-05T02:51:03.068Z,19.50
2023-02-05T02:53:42.839Z,18.70
2023-02-05T02:56:12.375Z,18.70
2023-02-05T02:59:19.728Z,18.00
2023-02-05T03:01:54.048Z,16.58
2023-02-05T03:04:30.884Z,16.92
2023-02-05T03:07:06.294Z,15.25
2023-02-05T03:09:40.105Z,16.48
2023-02-05T03:12:07.343Z,16.42
2023-02-05T03:14:36.186Z,15.98
2023-02-05T03:17:02.884Z,14.38
2023-02-05T03:19:29.986Z,15.82
2023-02-05T03:22:04.890Z,15.63
2023-02-05T03:24:32.587Z,14.38
2023-02-05T03:26:59.214Z,13.90
2023-02-05T03:29:32.904Z,14.55
2023-02-05T03:32:29.863Z,13.05
2023-02-05T03:35:17.681Z,13.98
2023-02-05T03:37:53.434Z,13.55
2023-02-05T03:40:43.718Z,11.15
2023-02-05T03:43:35.177Z,11.65
2023-02-05T03:46:13.265Z,11.57
2023-02-05T03:48:57.936Z,10.95
2023-02-05T03:51:51.972Z,9.65
2023-02-05T03:54:23.059Z,9.70
2023-02-05T03:57:05.047Z,9.43
2023-02-05T03:59:33.916Z,9.23
2023-02-05T04:02:01.061Z,9.18
2023-02-05T04:04:27.908Z,8.98
2023-02-05T04:06:55.080Z,8.40
2023-02-05T04:09:21.628Z,8.70
2023-02-05T04:11:48.187Z,7.68
2023-02-05T04:14:15.436Z,7.63
2023-02-05T04:16:42.069Z,7.45
2023-02-05T04:19:08.720Z,7.07
2023-02-05T04:21:35.314Z,6.13
2023-02-05T04:24:02.736Z,6.50
2023-02-05T04:26:29.354Z,5.80
2023-02-05T04:28:56.003Z,6.18
2023-02-05T04:31:22.811Z,5.28
2023-02-05T04:33:49.397Z,5.57
2023-02-05T04:36:16.023Z,4.85
2023-02-05T04:38:45.087Z,5.72
2023-02-05T04:41:11.716Z,5.07
2023-02-05T04:43:38.296Z,5.57
2023-02-05T04:46:09.608Z,5.90
2023-02-05T04:48:36.749Z,5.25
2023-02-05T04:51:08.234Z,6.00
2023-02-05T04:53:37.186Z,5.55
2023-02-05T04:56:12.753Z,5.43
2023-02-05T04:58:40.067Z,6.15
2023-02-05T05:01:12.474Z,5.90
2023-02-05T05:03:45.456Z,5.43
2023-02-05T05:06:13.276Z,6.32
2023-02-05T05:08:40.380Z,5.97
2023-02-05T05:11:10.082Z,5.78
2023-02-05T05:13:39.740Z,6.28
2023-02-05T05:16:07.452Z,5.68
2023-02-05T05:18:35.095Z,5.65
2023-02-05T05:21:02.317Z,6.10
2023-02-05T05:23:29.184Z,6.47
2023-02-05T05:25:55.802Z,6.55
2023-02-05T05:28:22.485Z,6.68
2023-02-05T05:30:49.067Z,6.68
2023-02-05T05:33:16.034Z,6.82
2023-02-05T05:35:42.889Z,7.30
2023-02-05T05:38:09.432Z,8.43
2023-02-05T05:40:54.639Z,7.47
2023-02-05T05:43:40.227Z,8.18
2023-02-05T05:46:08.413Z,8.20
2023-02-05T05:48:37.276Z,6.63
2023-02-05T05:51:04.359Z,6.90
2023-02-05T05:53:34.309Z,5.28
2023-02-05T05:56:00.865Z,5.00
2023-02-05T05:58:29.570Z,5.20
2023-02-05T06:00:56.236Z,5.38
2023-02-05T06:03:24.014Z,3.35
2023-02-05T06:05:50.593Z,4.38
2023-02-05T06:08:17.228Z,4.70
2023-02-05T06:10:44.197Z,3.63
2023-02-05T06:13:13.384Z,2.35
2023-02-05T06:15:39.995Z,2.75
2023-02-05T06:18:06.596Z,3.00
2023-02-05T06:20:33.239Z,3.22
2023-02-05T06:22:59.870Z,2.90
2023-02-05T06:25:26.690Z,1.95
2023-02-05T06:27:55.641Z,2.00
2023-02-05T06:30:22.244Z,1.27
2023-02-05T06:32:48.830Z,1.20
2023-02-05T06:35:15.684Z,0.80
2023-02-05T06:37:47.415Z,1.05
2023-02-05T06:40:15.899Z,0.60
2023-02-05T06:42:47.310Z,1.50
2023-02-05T06:45:14.552Z,0.70
2023-02-05T06:47:41.098Z,0.95
2023-02-05T06:50:08.063Z,0.60
2023-02-05T06:52:37.632Z,1.00
2023-02-05T06:55:04.826Z,1.25
2023-02-05T06:57:32.036Z,0.52
2023-02-05T06:59:58.642Z,0.52
2023-02-05T07:02:25.436Z,0.65
2023-02-05T07:04:52.097Z,0.68
2023-02-05T07:07:18.799Z,0.88
2023-02-05T07:09:45.390Z,0.93
2023-02-05T07:12:12.124Z,0.98
2023-02-05T07:14:39.877Z,0.55
2023-02-05T07:17:08.672Z,0.70
2023-02-05T07:19:36.569Z,1.38
2023-02-05T07:22:04.068Z,1.23
2023-02-05T07:24:31.704Z,0.70
2023-02-05T07:26:58.399Z,0.98
2023-02-05T07:29:24.997Z,1.00
2023-02-05T07:31:52.660Z,1.10
2023-02-05T07:34:19.861Z,1.00
2023-02-05T07:36:52.179Z,1.42
2023-02-05T07:39:19.413Z,1.20
2023-02-05T07:41:45.990Z,1.20
2023-02-05T07:44:13.228Z,0.90
2023-02-05T07:46:39.997Z,1.23
2023-02-05T07:49:06.582Z,0.60
2023-02-05T07:51:35.461Z,0.85
2023-02-05T07:54:07.388Z,1.10
2023-02-05T07:56:34.025Z,1.58
2023-02-05T07:59:00.849Z,1.42
2023-02-05T08:01:27.706Z,1.15
2023-02-05T08:03:54.350Z,2.67
2023-02-05T08:06:26.206Z,1.50
2023-02-05T08:08:52.962Z,1.95
2023-02-05T08:11:19.850Z,1.35
2023-02-05T08:13:46.976Z,1.10
2023-02-05T08:16:17.694Z,1.23
2023-02-05T08:18:49.459Z,1.63
2023-02-05T08:21:16.780Z,1.50
2023-02-05T08:23:43.364Z,1.70
2023-02-05T08:26:10.042Z,1.90
2023-02-05T08:28:36.606Z,1.45
2023-02-05T08:31:09.736Z,1.88
2023-02-05T08:33:36.389Z,1.58
2023-02-05T08:36:03.020Z,2.08
2023-02-05T08:38:29.679Z,1.90
2023-02-05T08:40:56.293Z,1.08
2023-02-05T08:43:23.012Z,2.00
2023-02-05T08:45:49.652Z,2.17
2023-02-05T08:48:16.307Z,1.30
2023-02-05T08:50:46.186Z,1.52
2023-02-05T08:53:12.745Z,1.65
2023-02-05T08:55:39.362Z,1.98
2023-02-05T08:58:06.098Z,1.80
2023-02-05T09:00:33.307Z,1.58
2023-02-05T09:02:59.922Z,2.35
2023-02-05T09:05:28.847Z,1.95
2023-02-05T09:07:55.591Z,2.72
2023-02-05T09:10:24.750Z,0.82
2023-02-05T09:12:52.023Z,1.95
2023-02-05T09:15:20.942Z,1.73
2023-02-05T09:17:48.053Z,2.30
2023-02-05T09:20:14.641Z,2.70
2023-02-05T09:22:41.305Z,2.72
2023-02-05T09:25:11.749Z,1.75
2023-02-05T09:27:38.377Z,2.95
2023-02-05T09:30:08.258Z,2.90
2023-02-05T09:32:34.874Z,2.42
2023-02-05T09:35:09.903Z,2.33
2023-02-05T09:37:39.311Z,4.20
2023-02-05T09:40:20.549Z,2.05
2023-02-05T09:42:57.030Z,2.72
2023-02-05T09:46:04.488Z,2.97
2023-02-05T09:48:33.987Z,2.60
2023-02-05T09:51:01.564Z,3.22
2023-02-05T09:53:35.534Z,3.10
2023-02-05T09:56:06.673Z,1.88
2023-02-05T09:58:37.985Z,3.50
2023-02-05T10:01:12.560Z,3.25
2023-02-05T10:03:49.611Z,2.70
2023-02-05T10:06:19.912Z,1.27
2023-02-05T10:09:25.840Z,2.55
2023-02-05T10:12:09.400Z,2.97
2023-02-05T10:14:42.049Z,3.25
2023-02-05T10:17:36.613Z,4.05
2023-02-05T10:20:20.739Z,3.97
2023-02-05T10:23:07.051Z,3.13
2023-02-05T10:25:45.447Z,2.55
2023-02-05T10:28:31.695Z,3.33
2023-02-05T10:31:19.844Z,3.60
2023-02-05T10:33:49.447Z,3.10
2023-02-05T10:36:21.918Z,2.10
2023-02-05T10:38:51.205Z,3.40
2023-02-05T10:41:43.219Z,3.05
2023-02-05T10:44:22.036Z,3.90
2023-02-05T10:46:55.266Z,3.00
2023-02-05T10:49:28.603Z,2.47
2023-02-05T10:51:57.688Z,1.65
2023-02-05T10:54:29.100Z,2.22
2023-02-05T10:57:01.783Z,1.95
2023-02-05T10:59:34.621Z,2.05
2023-02-05T11:02:04.453Z,1.52
2023-02-05T11:04:38.275Z,2.08
2023-02-05T11:07:13.528Z,0.82
2023-02-05T11:09:40.369Z,1.30
2023-02-05T11:12:18.891Z,2.42
2023-02-05T11:14:46.689Z,3.53
2023-02-05T11:17:21.088Z,1.50
2023-02-05T11:19:54.284Z,1.90
2023-02-05T11:22:33.304Z,2.53
2023-02-05T11:25:16.563Z,1.63
2023-02-05T11:27:54.693Z,2.92
2023-02-05T11:30:50.403Z,1.52
2023-02-05T11:33:24.738Z,2.28
2023-02-05T11:36:03.846Z,1.30
2023-02-05T11:38:39.889Z,3.30
2023-02-05T11:41:08.306Z,2.90
2023-02-05T11:43:38.122Z,1.90
2023-02-05T11:46:08.402Z,2.20
2023-02-05T11:48:38.368Z,2.30
2023-02-05T11:51:08.146Z,1.95
2023-02-05T11:53:39.242Z,1.92
2023-02-05T11:56:14.088Z,1.98
2023-02-05T11:58:40.707Z,1.45
2023-02-05T12:01:24.199Z,2.05
2023-02-05T12:04:21.204Z,1.95
2023-02-05T12:06:55.358Z,3.03
2023-02-05T12:09:24.226Z,2.25
2023-02-05T12:12:06.587Z,2.33
2023-02-05T12:14:38.456Z,1.65
2023-02-05T12:17:20.282Z,1.38
2023-02-05T12:20:09.995Z,1.88
2023-02-05T12:22:45.330Z,1.88
2023-02-05T12:25:25.302Z,1.23
2023-02-05T12:28:07.795Z,1.50
2023-02-05T12:30:42.400Z,2.65
2023-02-05T12:33:19.630Z,2.30
2023-02-05T12:36:11.459Z,1.73
2023-02-05T12:38:52.113Z,2.75
2023-02-05T12:41:43.720Z,2.00
2023-02-05T12:44:32.294Z,2.28
2023-02-05T12:47:12.309Z,1.40
2023-02-05T12:50:14.446Z,1.45
2023-02-05T12:53:00.848Z,3.40
2023-02-05T12:55:51.786Z,2.65
2023-02-05T12:58:20.932Z,3.25
2023-02-05T13:00:54.784Z,2.72
2023-02-05T13:03:36.489Z,2.40
2023-02-05T13:06:13.730Z,1.80
2023-02-05T13:09:13.320Z,2.08
2023-02-05T13:12:05.113Z,3.78
2023-02-05T13:14:43.479Z,4.45
2023-02-05T13:17:21.044Z,2.72
2023-02-05T13:19:53.254Z,2.13
2023-02-05T13:22:41.166Z,2.38
2023-02-05T13:25:39.852Z,1.40
2023-02-05T13:28:33.686Z,3.40
2023-02-05T13:31:06.479Z,2.40
2023-02-05T13:33:33.099Z,2.92
2023-02-05T13:36:18.543Z,3.33
2023-02-05T13:38:57.469Z,3.05
2023-02-05T13:41:56.243Z,3.53
2023-02-05T13:44:41.483Z,1.95
2023-02-05T13:47:29.798Z,3.63
2023-02-05T13:50:22.393Z,2.65
2023-02-05T13:53:06.155Z,2.90
2023-02-05T13:55:57.432Z,1.65
2023-02-05T13:58:48.377Z,3.30
2023-02-05T14:01:20.319Z,3.28
2023-02-05T14:04:32.632Z,2.30
2023-02-05T14:07:02.973Z,2.30
2023-02-05T14:09:41.429Z,3.03
2023-02-05T14:12:12.170Z,2.67
2023-02-05T14:14:41.133Z,2.10
2023-02-05T14:17:31.151Z,3.70
2023-02-05T14:19:58.991Z,3.60
2023-02-05T14:22:42.299Z,2.83
2023-02-05T14:25:42.911Z,2.15
2023-02-05T14:28:12.531Z,2.85
2023-02-05T14:31:05.739Z,3.50
2023-02-05T14:33:45.422Z,2.33
2023-02-05T14:36:17.963Z,2.95
2023-02-05T14:38:51.458Z,2.55
2023-02-05T14:41:22.309Z,3.55
2023-02-05T14:44:02.124Z,2.95
2023-02-05T14:46:39.937Z,5.07
2023-02-05T14:49:22.521Z,3.33
2023-02-05T14:51:54.633Z,1.70
2023-02-05T14:54:24.140Z,2.97
2023-02-05T14:57:09.732Z,2.55
2023-02-05T14:59:47.948Z,3.17
2023-02-05T15:02:51.600Z,3.55
2023-02-05T15:05:39.201Z,3.80
2023-02-05T15:08:24.425Z,3.92
2023-02-05T15:11:00.168Z,2.80
2023-02-05T15:13:26.925Z,3.45
2023-02-05T15:16:18.841Z,2.95
2023-02-05T15:18:55.179Z,2.58
2023-02-05T15:21:21.709Z,1.77
2023-02-05T15:23:58.598Z,3.50
2023-02-05T15:26:42.357Z,3.55
2023-02-05T15:29:32.599Z,3.40
2023-02-05T15:32:03.839Z,4.32
2023-02-05T15:34:38.628Z,3.35
2023-02-05T15:37:29.831Z,4.18
2023-02-05T15:39:57.758Z,4.00
2023-02-05T15:42:40.644Z,3.60
2023-02-05T15:45:26.555Z,3.83
2023-02-05T15:47:59.648Z,5.35
2023-02-05T15:50:27.914Z,4.55
2023-02-05T15:52:55.417Z,2.90
2023-02-05T15:55:24.706Z,3.88
2023-02-05T15:57:51.652Z,3.00
2023-02-05T16:00:29.315Z,3.20
2023-02-05T16:03:01.880Z,4.03
2023-02-05T16:05:32.660Z,3.85
2023-02-05T16:08:01.949Z,4.38
2023-02-05T16:10:35.063Z,4.93
2023-02-05T16:13:05.335Z,4.05
2023-02-05T16:15:45.159Z,4.85
2023-02-05T16:18:20.344Z,3.25
2023-02-05T16:20:53.486Z,5.05
2023-02-05T16:23:35.158Z,3.10
2023-02-05T16:26:15.223Z,4.18
2023-02-05T16:28:48.384Z,3.90
2023-02-05T16:31:21.280Z,4.95
2023-02-05T16:33:53.725Z,5.00
2023-02-05T16:36:31.873Z,5.03
2023-02-05T16:39:07.382Z,5.25
2023-02-05T16:41:40.380Z,4.53
2023-02-05T16:44:25.625Z,3.92
2023-02-05T16:47:19.187Z,3.35
2023-02-05T16:49:47.769Z,3.80
2023-02-05T16:52:32.466Z,4.90
2023-02-05T16:55:05.665Z,3.80
2023-02-05T16:57:36.690Z,4.45
2023-02-05T17:00:25.764Z,5.47
2023-02-05T17:02:55.457Z,4.07
2023-02-05T17:05:28.584Z,4.35
2023-02-05T17:07:58.167Z,4.60
2023-02-05T17:10:25.432Z,4.20
2023-02-05T17:13:05.077Z,5.15
2023-02-05T17:15:40.309Z,4.47
2023-02-05T17:18:29.448Z,5.07
2023-02-05T17:21:21.508Z,4.97
2023-02-05T17:23:49.816Z,3.15
2023-02-05T17:26:16.998Z,4.15
2023-02-05T17:28:46.825Z,3.90
2023-02-05T17:31:14.337Z,4.45
2023-02-05T17:33:43.224Z,5.47
2023-02-05T17:36:17.796Z,4.35
2023-02-05T17:38:45.398Z,4.15
2023-02-05T17:41:41.278Z,3.90
2023-02-05T17:44:12.317Z,4.85
2023-02-05T17:46:39.584Z,4.35
2023-02-05T17:49:06.624Z,2.17
2023-02-05T17:51:33.332Z,4.90
2023-02-05T17:54:02.999Z,3.40
2023-02-05T17:56:29.838Z,4.18
2023-02-05T17:58:58.213Z,5.32
2023-02-05T18:01:25.004Z,5.63
2023-02-05T18:03:51.657Z,5.65
2023-02-05T18:06:19.198Z,4.85
2023-02-05T18:08:45.995Z,4.75
2023-02-05T18:11:15.088Z,4.72
2023-02-05T18:13:41.721Z,4.47
2023-02-05T18:16:12.289Z,4.38
2023-02-05T18:18:39.290Z,4.47
2023-02-05T18:21:07.328Z,4.93
2023-02-05T18:23:33.960Z,4.15
2023-02-05T18:26:00.987Z,5.15
2023-02-05T18:28:28.542Z,4.80
2023-02-05T18:31:03.668Z,5.47
2023-02-05T18:33:30.611Z,4.13
2023-02-05T18:36:07.892Z,3.97
2023-02-05T18:38:38.254Z,3.60
2023-02-05T18:41:05.895Z,5.00
2023-02-05T18:43:36.351Z,5.50
2023-02-05T18:46:11.233Z,3.95
2023-02-05T18:48:45.680Z,4.00
2023-02-05T18:51:18.598Z,4.45
2023-02-05T18:53:46.101Z,4.05
2023-02-05T18:56:16.287Z,4.63
2023-02-05T18:58:44.531Z,4.45
2023-02-05T19:01:16.831Z,4.20
2023-02-05T19:03:46.328Z,4.68
2023-02-05T19:06:17.118Z,4.35
2023-02-05T19:08:43.969Z,3.97
2023-02-05T19:11:13.633Z,3.95
2023-02-05T19:13:40.697Z,5.78
2023-02-05T19:16:12.733Z,4.72
2023-02-05T19:18:40.620Z,4.75
2023-02-05T19:21:12.789Z,4.20
2023-02-05T19:23:39.970Z,4.65
2023-02-05T19:26:14.215Z,4.63
2023-02-05T19:28:41.515Z,4.90
2023-02-05T19:31:15.040Z,4.60
2023-02-05T19:33:42.247Z,6.03
2023-02-05T19:36:10.681Z,5.10
2023-02-05T19:38:39.168Z,4.97
2023-02-05T19:41:09.461Z,4.25
2023-02-05T19:43:36.165Z,4.97
2023-02-05T19:46:10.130Z,4.90
2023-02-05T19:48:36.807Z,5.15
2023-02-05T19:51:08.475Z,5.57
2023-02-05T19:53:38.920Z,5.43
2023-02-05T19:56:27.245Z,3.83
2023-02-05T19:58:55.329Z,4.80
2023-02-05T20:01:32.666Z,5.35
2023-02-05T20:04:16.877Z,5.00
2023-02-05T20:06:46.490Z,4.60
2023-02-05T20:09:14.465Z,5.07
2023-02-05T20:11:43.630Z,4.68
2023-02-05T20:14:11.317Z,5.55
2023-02-05T20:16:41.918Z,4.95
2023-02-05T20:19:11.065Z,4.55
2023-02-05T20:21:38.576Z,5.15
2023-02-05T20:24:07.455Z,4.00
2023-02-05T20:26:35.168Z,4.60
2023-02-05T20:29:23.082Z,3.92
2023-02-05T20:31:51.507Z,3.88
2023-02-05T20:34:25.628Z,4.78
2023-02-05T20:36:58.026Z,5.13
2023-02-05T20:39:28.793Z,4.78
2023-02-05T20:41:57.985Z,5.18
2023-02-05T20:44:26.826Z,5.28
2023-02-05T20:46:54.011Z,6.10
2023-02-05T20:49:20.780Z,4.50
2023-02-05T20:51:47.565Z,4.25
2023-02-05T20:54:14.228Z,4.43
2023-02-05T20:56:41.557Z,4.05
2023-02-05T20:59:09.594Z,4.72
2023-02-05T21:01:37.801Z,4.65
2023-02-05T21:04:06.688Z,4.18
2023-02-05T21:06:36.555Z,6.70
2023-02-05T21:09:04.455Z,4.53
2023-02-05T21:11:31.618Z,5.20
2023-02-05T21:13:58.872Z,5.70
2023-02-05T21:16:27.722Z,4.57
2023-02-05T21:18:55.647Z,3.17
2023-02-05T21:21:24.629Z,4.67
2023-02-05T21:23:59.159Z,4.53
2023-02-05T21:26:39.992Z,4.10
2023-02-05T21:29:15.265Z,4.22
2023-02-05T21:31:46.365Z,3.73
2023-02-05T21:34:15.635Z,4.28
2023-02-05T21:36:42.290Z,4.43
2023-02-05T21:39:10.820Z,4.13
2023-02-05T21:41:37.632Z,4.70
2023-02-05T21:44:05.013Z,3.80
2023-02-05T21:46:31.882Z,4.57
2023-02-05T21:49:04.177Z,4.22
2023-02-05T21:51:34.642Z,4.15
2023-02-05T21:54:03.860Z,4.43
2023-02-05T21:56:50.727Z,4.83
2023-02-05T21:59:19.439Z,4.63
2023-02-05T22:01:46.166Z,4.63
2023-02-05T22:04:16.342Z,4.03
2023-02-05T22:06:43.765Z,3.73
2023-02-05T22:09:13.880Z,4.37
2023-02-05T22:11:40.775Z,3.47
2023-02-05T22:14:08.683Z,4.17
2023-02-05T22:16:36.652Z,4.25
2023-02-05T22:19:04.600Z,4.40
2023-02-05T22:21:34.900Z,5.83
2023-02-05T22:24:02.843Z,3.30
2023-02-05T22:26:32.274Z,4.33
2023-02-05T22:29:02.317Z,4.20
2023-02-05T22:31:29.671Z,4.10
2023-02-05T22:33:57.024Z,3.97
2023-02-05T22:36:26.694Z,3.77
2023-02-05T22:38:54.394Z,5.17
2023-02-05T22:41:22.669Z,5.00
2023-02-05T22:43:49.677Z,4.73
2023-02-05T22:46:21.137Z,4.10
2023-02-05T22:48:49.162Z,3.70
2023-02-05T22:51:29.554Z,3.97
2023-02-05T22:53:56.522Z,4.40
2023-02-05T22:56:23.620Z,4.50
2023-02-05T22:58:50.633Z,3.90
2023-02-05T23:01:21.376Z,4.80
2023-02-05T23:03:50.847Z,4.40
2023-02-05T23:06:21.472Z,4.80
2023-02-05T23:09:03.179Z,4.57
2023-02-05T23:11:31.500Z,3.80
2023-02-05T23:14:00.506Z,3.80
2023-02-05T23:16:30.665Z,4.17
2023-02-05T23:19:00.791Z,4.73
2023-02-05T23:21:29.849Z,4.17
2023-02-05T23:23:57.042Z,4.67
2023-02-05T23:26:30.770Z,4.27
2023-02-05T23:28:58.037Z,4.90
2023-02-05T23:31:27.906Z,4.03
2023-02-05T23:33:54.936Z,4.17
2023-02-05T23:36:21.775Z,4.43
2023-02-05T23:38:48.985Z,4.53
2023-02-05T23:41:35.454Z,3.83
2023-02-05T23:44:22.909Z,3.57
2023-02-05T23:46:54.257Z,3.83
2023-02-05T23:49:23.111Z,3.30
2023-02-05T23:51:51.043Z,4.20
2023-02-05T23:54:19.940Z,4.00
2023-02-05T23:56:47.013Z,3.57
2023-02-05T23:59:14.725Z,3.90
